Weather History for Indiana, PA

Change the Weather History Date:

Saturday, October 20, 2012

  Actual Average Record
Temperature  
Mean Temperature 48 °F -  
Max Temperature 51 °F 59 °F 80 °F (1963)
Min Temperature 44 °F 36 °F 20 °F (1972)
Degree Days  
Heating Degree Days 18    
Moisture  
Dew Point 44 °F    
Average Humidity 87    
Maximum Humidity 100    
Minimum Humidity 71    
Precipitation  
Precipitation 0.03 in - - ()
Sea Level Pressure  
Sea Level Pressure 29.79 in    
Wind  
Wind Speed 11 mph (WSW)    
Max Wind Speed 18 mph    
Max Gust Speed 24 mph    
Visibility 10 miles    
Events      
Averages and records for this station are not official NWS values.
T = Trace of Precipitation, MM = Missing Value Source: NWS Daily Summary

Daily Weather History Graph

Daily Weather History Graph

Search for Another Location

Airport:

Trip Planner

Search our weather history database for the weather conditions in past years. The results will help you decide how hot, cold, wet, or windy it might be!

Date:

Astronomy

Oct. 20, 2012 Rise Set
Actual Time 7:33 AM EDT 6:28 PM EDT
Civil Twilight 7:05 AM EDT 6:55 PM EDT
Nautical Twilight 6:33 AM EDT 7:27 PM EDT
Astronomical Twilight 6:02 AM EDT 7:59 PM EDT
Moon 1:08 PM EDT 11:11 PM EDT
Length of Visible Light 11h 50m
Length of Day
10h 54m
Waxing Crescent, 34% of the Moon is Illuminated
Oct 20
Waxing Crescent
Oct 21
First Quarter
Oct 29
Full
Nov 6
Last Quarter
Nov 13
New

Hourly Weather History & Observations

Time (EDT) Temp. Windchill Dew Point Humidity Pressure Visibility Wind Dir Wind Speed Gust Speed Precip Events Conditions
12:15 AM 51.8 °F - 42.8 °F 71% 29.73 in 10.0 mi WSW 15.0 mph 18.4 mph N/A   Unknown
12:35 AM 50.0 °F - 42.8 °F 76% 29.73 in 10.0 mi WSW 11.5 mph 21.9 mph N/A   Unknown
12:55 AM 50.0 °F - 44.6 °F 82% 29.72 in 10.0 mi West 12.7 mph 24.2 mph N/A   Unknown
1:15 AM 48.2 °F - 44.6 °F 87% 29.73 in 10.0 mi West 11.5 mph 16.1 mph N/A   Unknown
1:35 AM 48.2 °F - 44.6 °F 87% 29.73 in 10.0 mi WSW 12.7 mph 18.4 mph N/A   Unknown
1:55 AM 48.2 °F - 44.6 °F 87% 29.73 in 10.0 mi WSW 11.5 mph 17.3 mph N/A   Unknown
2:15 AM 48.2 °F - 44.6 °F 87% 29.74 in 10.0 mi WSW 10.4 mph - N/A   Unknown
2:35 AM 48.2 °F - 44.6 °F 87% 29.74 in 10.0 mi WSW 11.5 mph 23.0 mph N/A   Unknown
2:55 AM 48.2 °F - 44.6 °F 87% 29.74 in 10.0 mi WSW 11.5 mph - N/A   Unknown
3:15 AM 46.4 °F 41.9 °F 44.6 °F 93% 29.74 in 10.0 mi WSW 9.2 mph - N/A   Unknown
3:35 AM 46.4 °F 42.4 °F 44.6 °F 93% 29.74 in 10.0 mi WSW 8.1 mph - N/A   Unknown
3:55 AM 46.4 °F 42.9 °F 44.6 °F 93% 29.74 in 10.0 mi West 6.9 mph - N/A   Unknown
4:15 AM 46.4 °F 42.4 °F 44.6 °F 93% 29.74 in 10.0 mi WSW 8.1 mph - N/A   Unknown
4:35 AM 46.4 °F 41.5 °F 44.6 °F 93% 29.74 in 10.0 mi WSW 10.4 mph - N/A   Unknown
4:55 AM 46.4 °F 41.1 °F 44.6 °F 93% 29.74 in 10.0 mi West 11.5 mph - N/A   Unknown
5:15 AM 46.4 °F 41.5 °F 44.6 °F 93% 29.74 in 10.0 mi WSW 10.4 mph - N/A   Unknown
5:35 AM 46.4 °F 42.9 °F 44.6 °F 93% 29.74 in 10.0 mi WSW 6.9 mph - N/A   Unknown
6:15 AM 46.4 °F 41.5 °F 44.6 °F 93% 29.74 in 10.0 mi WSW 10.4 mph - N/A   Unknown
6:35 AM 46.4 °F 41.1 °F 44.6 °F 93% 29.71 in 10.0 mi West 11.5 mph - N/A   Unknown
6:55 AM 46.4 °F 41.5 °F 44.6 °F 93% 29.72 in 10.0 mi WSW 10.4 mph - N/A   Unknown
7:15 AM 46.4 °F 42.4 °F 44.6 °F 93% 29.72 in 10.0 mi WSW 8.1 mph - N/A   Unknown
7:35 AM 46.4 °F 44.3 °F 44.6 °F 93% 29.72 in 10.0 mi WSW 4.6 mph 9.2 mph N/A   Unknown
7:55 AM 46.4 °F 42.9 °F 44.6 °F 93% 29.73 in 10.0 mi WSW 6.9 mph - N/A   Unknown
8:15 AM 46.4 °F 41.5 °F 44.6 °F 93% 29.74 in 10.0 mi West 10.4 mph - N/A   Unknown
8:35 AM 46.4 °F 41.5 °F 44.6 °F 93% 29.75 in 10.0 mi WSW 10.4 mph - N/A   Unknown
8:55 AM 46.4 °F 40.7 °F 44.6 °F 93% 29.75 in 10.0 mi West 12.7 mph 18.4 mph N/A   Unknown
9:15 AM 48.2 °F - 44.6 °F 87% 29.76 in 10.0 mi West 18.4 mph 21.9 mph N/A   Unknown
9:35 AM 48.2 °F - 44.6 °F 87% 29.76 in 10.0 mi West 13.8 mph - N/A   Unknown
9:55 AM 48.2 °F - 44.6 °F 87% 29.76 in 10.0 mi WSW 18.4 mph 24.2 mph N/A   Unknown
10:15 AM 48.2 °F - 42.8 °F 82% 29.77 in 10.0 mi WSW 13.8 mph 20.7 mph N/A   Unknown
10:35 AM 51.8 °F - 44.6 °F 76% 29.77 in 10.0 mi West 12.7 mph 21.9 mph N/A   Unknown
10:55 AM 51.8 °F - 42.8 °F 71% 29.77 in 10.0 mi West 15.0 mph 18.4 mph N/A   Unknown
11:15 AM 50.0 °F - 42.8 °F 76% 29.78 in 10.0 mi West 17.3 mph 23.0 mph N/A   Unknown
11:35 AM 50.0 °F - 42.8 °F 76% 29.78 in 10.0 mi West 11.5 mph - N/A   Unknown
11:55 AM 50.0 °F - 42.8 °F 76% 29.79 in 10.0 mi West 12.7 mph - N/A   Unknown
12:15 PM 50.0 °F - 42.8 °F 76% 29.79 in 10.0 mi WSW 10.4 mph 18.4 mph N/A   Unknown
12:35 PM 51.8 °F - 42.8 °F 71% 29.78 in 10.0 mi West 11.5 mph 16.1 mph N/A   Unknown
12:55 PM 51.8 °F - 42.8 °F 71% 29.78 in 10.0 mi West 12.7 mph 16.1 mph N/A   Unknown
1:15 PM 51.8 °F - 42.8 °F 71% 29.78 in 10.0 mi West 12.7 mph 21.9 mph N/A   Unknown
1:35 PM 51.8 °F - 42.8 °F 71% 29.78 in 10.0 mi West 11.5 mph 18.4 mph N/A   Unknown
1:55 PM 51.8 °F - 42.8 °F 71% 29.78 in 10.0 mi West 13.8 mph - N/A   Unknown
2:15 PM 51.8 °F - 42.8 °F 71% 29.78 in 10.0 mi West 16.1 mph 20.7 mph N/A   Unknown
2:35 PM 51.8 °F - 42.8 °F 71% 29.77 in 10.0 mi WSW 17.3 mph 23.0 mph N/A   Unknown
2:55 PM 51.8 °F - 42.8 °F 71% 29.77 in 10.0 mi WSW 12.7 mph - N/A   Unknown
3:15 PM 50.0 °F - 44.6 °F 82% 29.79 in 10.0 mi West 12.7 mph 17.3 mph N/A   Unknown
3:35 PM 48.2 °F - 44.6 °F 87% 29.80 in 10.0 mi WSW 11.5 mph - N/A   Unknown
3:55 PM 50.0 °F - 44.6 °F 82% 29.80 in 10.0 mi West 12.7 mph - N/A   Unknown
4:15 PM 46.4 °F 40.1 °F 44.6 °F 93% 29.81 in 2.5 mi West 15.0 mph 23.0 mph 0.02 in   Unknown
4:35 PM 46.4 °F 41.9 °F 44.6 °F 93% 29.81 in 10.0 mi West 9.2 mph 18.4 mph 0.03 in   Unknown
4:55 PM 48.2 °F - 44.6 °F 87% 29.82 in 10.0 mi West 9.2 mph - 0.03 in   Unknown
5:15 PM 48.2 °F - 44.6 °F 87% 29.82 in 10.0 mi West 10.4 mph - N/A   Unknown
5:35 PM 48.2 °F - 46.4 °F 93% 29.82 in 10.0 mi West 8.1 mph - N/A   Unknown
5:55 PM 48.2 °F - 44.6 °F 87% 29.83 in 10.0 mi West 6.9 mph - N/A   Unknown
6:15 PM 48.2 °F - 44.6 °F 87% 29.84 in 10.0 mi West 3.5 mph - N/A   Unknown
6:35 PM 48.2 °F - 44.6 °F 87% 29.84 in 10.0 mi West 4.6 mph - N/A   Unknown
6:55 PM 48.2 °F - 44.6 °F 87% 29.85 in 10.0 mi West 4.6 mph - N/A   Unknown
7:15 PM 48.2 °F - 44.6 °F 87% 29.86 in 10.0 mi SW 4.6 mph - N/A   Unknown
7:35 PM 48.2 °F - 46.4 °F 93% 29.86 in 10.0 mi SW 8.1 mph - N/A   Unknown
7:55 PM 46.4 °F 42.4 °F 46.4 °F 100% 29.87 in 10.0 mi WSW 8.1 mph - N/A   Unknown
8:15 PM 46.4 °F 43.5 °F 46.4 °F 100% 29.88 in 10.0 mi SW 5.8 mph - N/A   Unknown
8:35 PM 46.4 °F 42.4 °F 46.4 °F 100% 29.88 in 10.0 mi West 8.1 mph - N/A   Unknown
8:55 PM 46.4 °F 42.4 °F 46.4 °F 100% 29.89 in 10.0 mi WSW 8.1 mph - N/A   Unknown
9:15 PM 46.4 °F 42.4 °F 46.4 °F 100% 29.89 in 10.0 mi West 8.1 mph - N/A   Unknown
9:35 PM 46.4 °F 42.9 °F 46.4 °F 100% 29.90 in 10.0 mi WSW 6.9 mph - N/A   Unknown
9:55 PM 46.4 °F 42.9 °F 44.6 °F 93% 29.90 in 10.0 mi WSW 6.9 mph - N/A   Unknown
10:15 PM 46.4 °F 43.5 °F 44.6 °F 93% 29.90 in 10.0 mi WSW 5.8 mph - N/A   Unknown
10:35 PM 46.4 °F 42.4 °F 44.6 °F 93% 29.91 in 10.0 mi WSW 8.1 mph - N/A   Unknown
10:55 PM 44.6 °F 39.7 °F 44.6 °F 100% 29.91 in 10.0 mi West 9.2 mph - N/A   Unknown
11:15 PM 44.6 °F 39.2 °F 44.6 °F 100% 29.91 in 10.0 mi WSW 10.4 mph - N/A   Unknown
11:35 PM 44.6 °F 40.7 °F 44.6 °F 100% 29.92 in 10.0 mi West 6.9 mph - N/A   Unknown
11:55 PM 44.6 °F 41.4 °F 44.6 °F 100% 29.92 in 10.0 mi WSW 5.8 mph - N/A   Unknown